Cassagnes-Bégonhès Airport

LFIG · Aveyron, Occitanie, Frankreich

METAR-Geschichte LFIG · Cassagnes-Bégonhès Airport

Unten siehst du die METARs der letzten paar Tage. Wähle ein Jahr, um ältere METARs ab dem Jahr 2007 zu durchsuchen.

29. November 2022

Uhrzeit Code Wetter Temp. Sichtweite Wolkendecke Wind METAR/SPECI
15:00
V
6 °C 10 km+ 3.600 ft 300° 300° 11 kt METAR LFCR 291400Z AUTO 30011KT 9999 SCT015 SCT029 BKN036 06/04 Q1018 NOSIG
14:30
M
7 °C 10 km+ 2.300 ft 310° 310° 10 kt METAR LFCR 291330Z AUTO 31010KT 9999 SCT015 BKN023 BKN035 07/04 Q1018 NOSIG
14:00
M
6 °C 10 km+ 2.800 ft 300° 300° 10 kt METAR LFCR 291300Z AUTO 30010KT 9999 BKN028 06/04 Q1018 NOSIG
13:30
M
6 °C 10 km+ 2.600 ft 330° 330° 7 kt METAR LFCR 291230Z AUTO 33007KT 300V010 9999 SCT012 BKN026 OVC037 06/04 Q1018 BECMG BKN014
13:00
M
5 °C 10 km+ 1.300 ft 320° 320° 7 kt METAR LFCR 291200Z AUTO 32007KT 9999 BKN013 OVC020 05/04 Q1018 NOSIG
12:30
M
5 °C 10 km+ 1.000 ft 310° 310° 9 kt METAR LFCR 291130Z AUTO 31009KT 9999 BKN010 OVC014 05/04 Q1018 BECMG BKN017
12:00
I
5 °C 10 km+ 900 ft 320° 320° 10 kt METAR LFCR 291100Z AUTO 32010KT 290V350 9999 BKN009 BKN016 05/04 Q1018 BECMG BKN017
11:30
I
5 °C 10 km+ 600 ft 300° 300° 8 kt METAR LFCR 291030Z AUTO 30008KT 9999 BKN006 BKN011 OVC016 05/04 Q1019 BECMG BKN017
11:00
I
5 °C 10 km+ 800 ft 310° 310° 9 kt METAR LFCR 291000Z AUTO 31009KT 9999 BKN008 OVC013 05/04 Q1019 BECMG BKN012
10:30
I
4 °C 10 km+ 500 ft 320° 320° 7 kt METAR LFCR 290930Z AUTO 32007KT 9999 OVC005 04/04 Q1018 BECMG BKN012
10:00
I
4 °C 10 km+ 800 ft 310° 310° 7 kt METAR LFCR 290900Z AUTO 31007KT 9999 OVC008 04/04 Q1018 TEMPO 0600 FG VV///
09:30
M
4 °C 10 km+ 1.100 ft 300° 300° 7 kt METAR LFCR 290830Z AUTO 30007KT 9999 FEW005 OVC011 04/04 Q1018 TEMPO 0600 FG VV///
09:00
L
4 °C 10 km+ 300 ft 330° 330° 6 kt METAR LFCR 290800Z AUTO 33006KT 300V360 9999 OVC003 04/04 Q1018 TEMPO 0600 FG VV///
08:30
L
4 °C 10 km+ 200 ft 350° 350° 4 kt METAR LFCR 290730Z AUTO 35004KT 310V020 9999 BKN002 OVC006 04/04 Q1018 TEMPO 0600 FG VV///
08:00
L
4 °C 10 km+ 300 ft 320° 320° 5 kt METAR LFCR 290700Z AUTO 32005KT 9999 OVC003 04/04 Q1018 TEMPO 0600 FG VV///
07:30
I
4 °C 10 km+ 500 ft 310° 310° 8 kt METAR LFCR 290630Z AUTO 31008KT 9999 OVC005 04/04 Q1018 TEMPO 0600 FG VV///
07:00
I
4 °C 10 km+ 600 ft 310° 310° 5 kt METAR LFCR 290600Z AUTO 31005KT 9999 BKN006 OVC010 04/04 Q1018 TEMPO 0600 FG VV///
06:30
I
4 °C 10 km+ 800 ft 300° 300° 8 kt METAR LFCR 290530Z AUTO 30008KT 9999 BKN008 04/03 Q1017 TEMPO 0600 FG VV///
06:00
I
4 °C 10 km+ 700 ft 290° 290° 8 kt METAR LFCR 290500Z AUTO 29008KT 9999 BKN007 OVC014 04/03 Q1017 TEMPO 3000 BR BECMG SCT010 BKN017
05:30
M
4 °C 10 km+ 1.000 ft 300° 300° 8 kt METAR LFCR 290430Z AUTO 30008KT 9999 OVC010 04/04 Q1017 TEMPO 3000 BR BECMG SCT010 BKN017
05:00
M
4 °C 10 km+ 1.300 ft 300° 300° 8 kt METAR LFCR 290400Z AUTO 30008KT 9999 FEW007 BKN013 OVC035 04/04 Q1017 TEMPO BKN005
04:30
I
5 °C 10 km+ 800 ft 300° 300° 10 kt METAR LFCR 290330Z AUTO 30010KT 9999 BKN008 BKN012 OVC018 05/04 Q1017 NOSIG
04:00
I
5 °C 10 km+ 800 ft 290° 290° 8 kt METAR LFCR 290300Z AUTO 29008KT 9999 BKN008 BKN014 OVC021 05/04 Q1017 NOSIG
03:30
I
5 °C 10 km+ 800 ft 290° 290° 7 kt METAR LFCR 290230Z AUTO 29007KT 9999 BKN008 OVC020 05/04 Q1017 NOSIG
03:00
I
5 °C 10 km+ 600 ft 280° 280° 10 kt METAR LFCR 290200Z AUTO 28010KT 9999 BKN006 OVC010 05/04 Q1017 NOSIG
02:30
I
4 °C 10 km+ 800 ft 270° 270° 7 kt METAR LFCR 290130Z AUTO 27007KT 9999 BKN008 BKN026 04/04 Q1017 NOSIG
02:00
M
5 °C 10 km+ 2.900 ft 280° 280° 10 kt METAR LFCR 290100Z AUTO 28010KT 9999 SCT008 BKN029 05/04 Q1017 TEMPO BKN005
01:30
V
5 °C 10 km+ 3.000 ft 280° 280° 10 kt METAR LFCR 290030Z AUTO 28010KT 9999 FEW009 SCT015 BKN030 05/04 Q1017 TEMPO BKN005
01:00
V
4 °C 10 km+ 3.200 ft 300° 300° 10 kt METAR LFCR 290000Z AUTO 30010KT 9999 FEW009 SCT016 OVC032 04/04 Q1018 TEMPO BKN005
00:30
M
5 °C 10 km+ 1.000 ft 300° 300° 10 kt METAR LFCR 282330Z AUTO 30010KT 9999 BKN010 BKN017 BKN022 05/04 Q1018 NOSIG
00:00
M
5 °C 10 km+ 1.000 ft 280° 280° 12 kt METAR LFCR 282300Z AUTO 28012KT 9999 BKN010 OVC016 05/05 Q1018 NOSIG

28. November 2022

Uhrzeit Code Wetter Temp. Sichtweite Wolkendecke Wind METAR/SPECI
23:30
M
6 °C 10 km+ 1.000 ft 290° 290° 10 kt METAR LFCR 282230Z AUTO 29010KT 9999 BKN010 OVC016 06/05 Q1018 NOSIG
23:00
I
6 °C 10 km+ 800 ft 300° 300° 11 kt METAR LFCR 282200Z AUTO 30011KT 9999 OVC008 06/05 Q1017 NOSIG
22:30
I
6 °C 10 km+ 600 ft 290° 290° 9 kt METAR LFCR 282130Z AUTO 29009KT 9999 BKN006 BKN010 OVC015 06/05 Q1017 NOSIG
22:00
I
6 °C 10 km+ 600 ft 280° 280° 8 kt METAR LFCR 282100Z AUTO 28008KT 9999 BKN006 BKN010 BKN015 06/05 Q1017 NOSIG
21:30
I
6 °C 10 km+ 900 ft 280° 280° 5 kt METAR LFCR 282030Z AUTO 28005KT 9999 BKN009/// BKN015/// OVC020/// ///TCU 06/06 Q1017 BECMG BKN005
21:00
M
5 °C 10 km+ 2.100 ft 290° 290° 6 kt METAR LFCR 282000Z AUTO 29006KT 240V320 9999 FEW009/// SCT015/// BKN021/// //////CB 05/05 Q1017 BECMG BKN005
20:30
M
5 °C 5 km 1.200 ft Var 000° 0 kt METAR LFCR 281930Z AUTO 00000KT 5000 RA BR BKN012/// OVC023/// //////CB 05/05 Q1017 BECMG NSW BKN005
20:00
M
5 °C 10 km+ 1.800 ft Var Var 3 kt METAR LFCR 281900Z AUTO VRB03KT 9999 BKN018/// BKN024/// OVC030/// //////CB 05/05 Q1017 BECMG BKN005
19:30
M
5 °C 10 km+ 2.600 ft Var Var 2 kt METAR LFCR 281830Z AUTO VRB02KT 9999 RA SCT018/// BKN026/// OVC060/// //////CB 05/04 Q1017 BECMG NSW BKN005
19:00
M
5 °C 10 km+ 2.000 ft 340° 340° 6 kt METAR LFCR 281800Z AUTO 34006KT 9999 -SNRA FEW009/// BKN020/// BKN025/// ///CB 05/05 Q1017 BECMG BKN013 BKN025
18:30
I
5 °C 4,3 km 1.000 ft 310° 310° 12 kt METAR LFCR 281730Z AUTO 31012KT 240V340 4300 +SNRA BR BKN010/// BKN015/// BKN024/// ///CB 05/04 Q1017 TEMPO BKN005 BECMG 9999 NSW
18:00
M
7 °C 10 km+ 1.500 ft 240° 240° 6 kt METAR LFCR 281700Z AUTO 24006KT 9999 BKN015/// BKN024/// OVC030/// ///CB 07/06 Q1016 TEMPO BKN005
17:30
M
7 °C 10 km+ 2.100 ft 280° 280° 3 kt METAR LFCR 281630Z AUTO 28003KT 250V310 9999 SCT016/// BKN021/// OVC027/// //////TCU 07/06 Q1016 TEMPO BKN005
17:00
V
8 °C 10 km+ 4.000 ft 260° 260° 7 kt METAR LFCR 281600Z AUTO 26007KT 9999 -RA FEW015/// SCT030/// BKN040/// ///TCU 08/06 Q1016 BECMG BKN013 BKN025
16:30
V
8 °C 10 km+ - 260° 260° 7 kt METAR LFCR 281530Z AUTO 26007KT 9999 //////CB 08/06 Q1016 BECMG BKN013 BKN025
16:00
V
8 °C 10 km+ 19.000 ft 260° 260° 7 kt METAR LFCR 281500Z AUTO 26007KT 9999 FEW034/// SCT060/// BKN190/// ///CB 08/06 Q1016 BECMG BKN013 BKN025
15:30
V
7 °C 10 km+ 3.200 ft 260° 260° 11 kt METAR LFCR 281430Z AUTO 26011KT 9999 -RA FEW015/// BKN032/// BKN043/// ///TCU 07/05 Q1016 BECMG BKN013 BKN025
15:00
M
9 °C 10 km+ 1.500 ft 290° 290° 9 kt METAR LFCR 281400Z AUTO 29009KT 260V320 9999 BKN015/// BKN023/// OVC043/// //////TCU 09/07 Q1016 BECMG BKN013 BKN025
14:30
M
8 °C 10 km+ 1.200 ft 310° 310° 8 kt METAR LFCR 281330Z AUTO 31008KT 9999 BKN012/// BKN017/// BKN022/// ///TCU 08/07 Q1016 TEMPO BKN025TCU
14:00
V
8 °C 10 km+ 4.200 ft 300° 300° 11 kt METAR LFCR 281300Z AUTO 30011KT 9999 FEW011 BKN042 BKN049 08/07 Q1016 TEMPO BKN025TCU
13:30
V
8 °C 10 km+ 4.600 ft 300° 300° 12 kt METAR LFCR 281230Z AUTO 30012KT 9999 FEW016/// SCT038/// BKN046/// //////TCU 08/06 Q1016 BECMG BKN013 BKN025
13:00
M
8 °C 10 km+ 1.200 ft 290° 290° 12 kt METAR LFCR 281200Z AUTO 29012KT 9999 BKN012/// BKN018/// //////TCU 08/06 Q1017 TEMPO BKN013 BKN025
12:30
M
8 °C 10 km+ 1.100 ft 290° 290° 13 kt METAR LFCR 281130Z AUTO 29013KT 9999 BKN011/// BKN017/// OVC022/// //////TCU 08/06 Q1017 TEMPO BKN008
12:00
I
8 °C 10 km+ 800 ft 280° 280° 12 kt METAR LFCR 281100Z AUTO 28012KT 9999 BKN008 BKN014 BKN021 08/07 Q1017 NOSIG
11:30
I
8 °C 10 km+ 700 ft 280° 280° 11 kt METAR LFCR 281030Z AUTO 28011KT 9999 BKN007 OVC011 08/07 Q1017 NOSIG
11:00
I
8 °C 10 km+ 700 ft 280° 280° 11 kt METAR LFCR 281000Z AUTO 28011KT 9999 BKN007/// OVC014/// //////TCU 08/07 Q1016 BECMG BKN008
10:30
I
8 °C 10 km+ 800 ft 280° 280° 12 kt METAR LFCR 280930Z AUTO 28012KT 9999 BKN008/// OVC014/// //////CB 08/07 Q1016 BECMG BKN008
10:00
I
7 °C 10 km+ 600 ft 270° 270° 8 kt METAR LFCR 280900Z AUTO 27008KT 9999 OVC006/// //////TCU 07/07 Q1016 TEMPO 2000 RA BECMG BKN008
09:30
I
7 °C 10 km+ 600 ft 260° 260° 7 kt METAR LFCR 280830Z AUTO 26007KT 9999 -RA BKN006/// BKN010/// BKN017/// //////TCU 07/07 Q1016 TEMPO 2000 RA BECMG BKN008
09:00
I
7 °C 10 km+ 600 ft 250° 250° 10 kt METAR LFCR 280800Z AUTO 25010KT 9999 -RA OVC006/// //////CB 07/07 Q1016 TEMPO 2000 RA OVC008
08:30
I
7 °C 10 km+ 600 ft 260° 260° 9 kt METAR LFCR 280730Z AUTO 26009KT 9999 -RA OVC006/// ///TCU 07/07 Q1016 TEMPO 2000 RA OVC008
08:00
I
7 °C 10 km+ 800 ft 250° 250° 8 kt METAR LFCR 280700Z AUTO 25008KT 9999 -RA BKN008/// BKN024/// BKN037/// //////TCU 07/07 Q1016 TEMPO 2000 RA OVC008
07:30
V
7 °C 10 km+ 4.000 ft 270° 270° 8 kt METAR LFCR 280630Z AUTO 27008KT 9999 -RA SCT011/// BKN040/// BKN048/// ///TCU 07/06 Q1016 TEMPO 2000 RA OVC008
07:00
V
7 °C 10 km+ 4.700 ft 270° 270° 4 kt METAR LFCR 280600Z AUTO 27004KT 9999 BKN047 OVC054 07/06 Q1016 TEMPO 2000 RA OVC008
06:30
V
7 °C 10 km+ 4.300 ft 270° 270° 7 kt METAR LFCR 280530Z AUTO 27007KT 9999 BKN043 OVC052 07/06 Q1015 TEMPO 2000 RA OVC008
06:00
V
7 °C 10 km+ 3.200 ft 250° 250° 10 kt METAR LFCR 280500Z AUTO 25010KT 9999 SCT006 BKN032 OVC039 07/07 Q1016 TEMPO 2000 RA OVC008
05:30
I
8 °C 10 km+ 600 ft 260° 260° 13 kt METAR LFCR 280430Z AUTO 26013KT 9999 BKN006 OVC010 08/07 Q1016 TEMPO 2000 RA
05:00
I
8 °C 10 km+ 900 ft 230° 230° 7 kt METAR LFCR 280400Z AUTO 23007KT 9999 BKN009/// BKN014/// BKN019/// //////CB 08/07 Q1016 TEMPO 2000 RA OVC008
04:30
V
8 °C 10 km+ 3.300 ft Var Var 3 kt METAR LFCR 280330Z AUTO VRB03KT 9999 FEW020/// SCT027/// BKN033/// ///CB 08/07 Q1016 TEMPO 2000 RA OVC008
04:00
I
8 °C 6 km 800 ft 250° 250° 6 kt METAR LFCR 280300Z AUTO 25006KT 200V270 6000 RA BKN008/// BKN014/// OVC043/// //////TCU 08/07 Q1016 TEMPO 2000 RA OVC008
03:30
M
8 °C 10 km+ 1.600 ft 290° 290° 4 kt METAR LFCR 280230Z AUTO 29004KT 9999 -DZ BKN016/// BKN028/// OVC035/// ///TCU 08/07 Q1016 TEMPO 2000 RA OVC008
03:00
V
8 °C 10 km+ 3.700 ft Var Var 3 kt METAR LFCR 280200Z AUTO VRB03KT 9999 -RA FEW031/// OVC037/// //////TCU 08/07 Q1016 TEMPO 2000 RA OVC008
02:30
V
8 °C 10 km+ 3.800 ft 150° 150° 2 kt METAR LFCR 280130Z AUTO 15002KT 9999 OVC038 08/07 Q1016 TEMPO 2000 RA OVC008 BECMG 28010KT
02:00
V
8 °C 10 km+ 3.900 ft 150° 150° 5 kt METAR LFCR 280100Z AUTO 15005KT 130V190 9999 BKN039 BKN078 OVC090 08/07 Q1016 BECMG 28010KT BKN013
01:30
V
8 °C 10 km+ 7.200 ft 130° 130° 5 kt METAR LFCR 280030Z AUTO 13005KT 9999 SCT046 OVC072 08/06 Q1017 BECMG 28010KT BKN013
01:00
V
8 °C 10 km+ - 130° 130° 6 kt METAR LFCR 280000Z AUTO 13006KT CAVOK 08/06 Q1017 NOSIG
00:30
V
8 °C 10 km+ - 140° 140° 7 kt METAR LFCR 272330Z AUTO 14007KT CAVOK 08/06 Q1017 NOSIG
00:00
V
6 °C 10 km+ - 140° 140° 8 kt METAR LFCR 272300Z AUTO 14008KT CAVOK 06/05 Q1017 NOSIG

27. November 2022

Uhrzeit Code Wetter Temp. Sichtweite Wolkendecke Wind METAR/SPECI
23:30
V
6 °C 10 km+ - 150° 150° 3 kt METAR LFCR 272230Z AUTO 15003KT CAVOK 06/05 Q1018 NOSIG
23:00
V
6 °C 10 km+ - 190° 190° 3 kt METAR LFCR 272200Z AUTO 19003KT CAVOK 06/04 Q1018 NOSIG
22:30
V
7 °C 10 km+ - 240° 240° 3 kt METAR LFCR 272130Z AUTO 24003KT CAVOK 07/04 Q1018 NOSIG
22:00
V
8 °C 10 km+ - 190° 190° 4 kt METAR LFCR 272100Z AUTO 19004KT 110V250 CAVOK 08/05 Q1018 NOSIG
21:30
V
9 °C 10 km+ - 120° 120° 11 kt METAR LFCR 272030Z AUTO 12011KT CAVOK 09/05 Q1017 NOSIG
21:00
V
9 °C 10 km+ - 110° 110° 11 kt METAR LFCR 272000Z AUTO 11011KT CAVOK 09/05 Q1017 NOSIG
20:30
V
8 °C 10 km+ - 110° 110° 13 kt METAR LFCR 271930Z AUTO 11013KT CAVOK 08/05 Q1017 NOSIG
20:00
V
8 °C 10 km+ - 120° 120° 14 kt METAR LFCR 271900Z AUTO 12014KT CAVOK 08/05 Q1017 NOSIG
19:30
V
8 °C 10 km+ - 120° 120° 14 kt METAR LFCR 271830Z AUTO 12014KT CAVOK 08/05 Q1018 NOSIG
19:00
V
8 °C 10 km+ - 110° 110° 14 kt METAR LFCR 271800Z AUTO 11014KT CAVOK 08/04 Q1018 NOSIG
18:30
V
8 °C 10 km+ - 120° 120° 13 kt METAR LFCR 271730Z AUTO 12013KT CAVOK 08/04 Q1018 NOSIG
18:00
V
9 °C 10 km+ - 110° 110° 14 kt METAR LFCR 271700Z AUTO 11014KT CAVOK 09/04 Q1018 NOSIG
17:30
V
9 °C 10 km+ - 120° 120° 13 kt METAR LFCR 271630Z AUTO 12013KT CAVOK 09/04 Q1019 NOSIG
17:00
V
9 °C 10 km+ - 120° 120° 14 kt METAR LFCR 271600Z AUTO 12014KT CAVOK 09/05 Q1019 NOSIG
16:30
V
10 °C 10 km+ - 120° 120° 12 kt METAR LFCR 271530Z AUTO 12012KT CAVOK 10/05 Q1019 NOSIG
16:00
V
11 °C 10 km+ - 120° 120° 12 kt METAR LFCR 271500Z AUTO 12012KT CAVOK 11/05 Q1019 NOSIG
15:30
V
11 °C 10 km+ - 130° 130° 11 kt METAR LFCR 271430Z AUTO 13011KT CAVOK 11/04 Q1020 NOSIG
15:00
V
12 °C 10 km+ - 130° 130° 15 kt METAR LFCR 271400Z AUTO 13015KT CAVOK 12/03 Q1020 NOSIG
14:30
V
12 °C 10 km+ - 130° 130° 15 kt METAR LFCR 271330Z AUTO 13015KT CAVOK 12/02 Q1020 NOSIG
14:00
V
12 °C 10 km+ - 130° 130° 13 kt METAR LFCR 271300Z AUTO 13013KT CAVOK 12/01 Q1020 NOSIG
13:30
V
13 °C 10 km+ - 120° 120° 13 kt METAR LFCR 271230Z AUTO 12013KT CAVOK 13/01 Q1021 NOSIG
13:00
V
13 °C 10 km+ - 120° 120° 12 kt METAR LFCR 271200Z AUTO 12012KT CAVOK 13/01 Q1021 NOSIG
12:30
V
12 °C 10 km+ - 120° 120° 12 kt METAR LFCR 271130Z AUTO 12012KT CAVOK 12/01 Q1022 NOSIG
12:00
V
12 °C 10 km+ - 120° 120° 11 kt METAR LFCR 271100Z AUTO 12011KT CAVOK 12/01 Q1022 NOSIG
11:30
V
12 °C 10 km+ - 110° 110° 10 kt METAR LFCR 271030Z AUTO 11010KT CAVOK 12/00 Q1022 NOSIG
11:00
V
10 °C 10 km+ - 110° 110° 6 kt METAR LFCR 271000Z AUTO 11006KT CAVOK 10/01 Q1023 NOSIG

Wir und Dritte verfolgen dein Internetverhalten auf unserer Website mit Cookies. Wenn du fortfährst, gehen wir davon aus, dass du mit unserer Cookie-Richtlinie einverstanden bist.